sensor_id;sensor_type;location;lat;lon;timestamp;pressure;altitude;pressure_sealevel;temperature;humidity
46223;BME280;31943;51.410;7.564;2023-07-29T00:02:23;99507.94;;;20.46;76.17
46223;BME280;31943;51.410;7.564;2023-07-29T00:04:50;99506.16;;;20.46;76.38
46223;BME280;31943;51.410;7.564;2023-07-29T00:07:16;99502.66;;;20.46;76.58
46223;BME280;31943;51.410;7.564;2023-07-29T00:09:41;99505.28;;;20.46;76.22
46223;BME280;31943;51.410;7.564;2023-07-29T00:12:07;99505.28;;;20.46;76.09
46223;BME280;31943;51.410;7.564;2023-07-29T00:14:33;99499.09;;;20.47;76.03
46223;BME280;31943;51.410;7.564;2023-07-29T00:17:00;99495.56;;;20.46;75.71
46223;BME280;31943;51.410;7.564;2023-07-29T00:19:25;99504.50;;;20.44;75.40
46223;BME280;31943;51.410;7.564;2023-07-29T00:21:53;99494.69;;;20.46;75.45
46223;BME280;31943;51.410;7.564;2023-07-29T00:24:18;99492.03;;;20.46;75.67
46223;BME280;31943;51.410;7.564;2023-07-29T00:26:44;99489.41;;;20.46;75.67
46223;BME280;31943;51.410;7.564;2023-07-29T00:29:10;99479.81;;;20.43;75.83
46223;BME280;31943;51.410;7.564;2023-07-29T00:31:35;99475.41;;;20.42;75.50
46223;BME280;31943;51.410;7.564;2023-07-29T00:34:01;99475.50;;;20.41;75.61
46223;BME280;31943;51.410;7.564;2023-07-29T00:36:26;99472.91;;;20.39;75.26
46223;BME280;31943;51.410;7.564;2023-07-29T00:38:53;99469.47;;;20.37;76.04
46223;BME280;31943;51.410;7.564;2023-07-29T00:41:19;99467.72;;;20.36;75.61
46223;BME280;31943;51.410;7.564;2023-07-29T00:43:46;99468.72;;;20.33;75.45
46223;BME280;31943;51.410;7.564;2023-07-29T00:46:13;99472.38;;;20.31;75.85
46223;BME280;31943;51.410;7.564;2023-07-29T00:48:39;99475.16;;;20.28;75.36
46223;BME280;31943;51.410;7.564;2023-07-29T00:51:05;99460.09;;;20.28;75.06
46223;BME280;31943;51.410;7.564;2023-07-29T00:53:30;99469.00;;;20.27;74.96
46223;BME280;31943;51.410;7.564;2023-07-29T00:55:58;99459.47;;;20.23;75.04
46223;BME280;31943;51.410;7.564;2023-07-29T00:58:24;99458.56;;;20.23;75.15
46223;BME280;31943;51.410;7.564;2023-07-29T01:00:50;99452.38;;;20.24;75.30
46223;BME280;31943;51.410;7.564;2023-07-29T01:03:16;99447.19;;;20.21;75.12
46223;BME280;31943;51.410;7.564;2023-07-29T01:05:54;99450.72;;;20.21;75.24
46223;BME280;31943;51.410;7.564;2023-07-29T01:08:30;99441.88;;;20.21;74.96
46223;BME280;31943;51.410;7.564;2023-07-29T01:11:03;99445.41;;;20.21;75.56
46223;BME280;31943;51.410;7.564;2023-07-29T01:13:40;99448.06;;;20.21;75.22
46223;BME280;31943;51.410;7.564;2023-07-29T01:16:13;99445.53;;;20.18;75.34
46223;BME280;31943;51.410;7.564;2023-07-29T01:18:43;99447.38;;;20.16;75.53
46223;BME280;31943;51.410;7.564;2023-07-29T01:21:14;99443.03;;;20.15;75.84
46223;BME280;31943;51.410;7.564;2023-07-29T01:23:43;99437.66;;;20.17;75.94
46223;BME280;31943;51.410;7.564;2023-07-29T01:26:09;99434.09;;;20.18;75.80
46223;BME280;31943;51.410;7.564;2023-07-29T01:28:34;99433.22;;;20.17;75.34
46223;BME280;31943;51.410;7.564;2023-07-29T01:31:05;99431.50;;;20.16;75.57
46223;BME280;31943;51.410;7.564;2023-07-29T01:33:38;99432.56;;;20.12;75.65
46223;BME280;31943;51.410;7.564;2023-07-29T01:36:11;99436.06;;;20.12;76.08
46223;BME280;31943;51.410;7.564;2023-07-29T01:38:38;99438.75;;;20.11;75.72
46223;BME280;31943;51.410;7.564;2023-07-29T01:41:09;99428.16;;;20.11;76.04
46223;BME280;31943;51.410;7.564;2023-07-29T01:43:36;99432.75;;;20.07;75.90
46223;BME280;31943;51.410;7.564;2023-07-29T01:46:02;99416.94;;;20.06;76.17
46223;BME280;31943;51.410;7.564;2023-07-29T01:48:28;99439.81;;;20.07;76.28
46223;BME280;31943;51.410;7.564;2023-07-29T01:50:54;99433.66;;;20.06;76.09
46223;BME280;31943;51.410;7.564;2023-07-29T01:53:19;99438.91;;;20.08;76.14
46223;BME280;31943;51.410;7.564;2023-07-29T01:55:45;99417.00;;;20.04;75.89
46223;BME280;31943;51.410;7.564;2023-07-29T01:58:12;99417.03;;;20.03;76.02
46223;BME280;31943;51.410;7.564;2023-07-29T02:00:38;99413.47;;;20.04;75.81
46223;BME280;31943;51.410;7.564;2023-07-29T02:03:04;99411.75;;;20.03;75.77
46223;BME280;31943;51.410;7.564;2023-07-29T02:05:29;99411.69;;;20.04;76.45
46223;BME280;31943;51.410;7.564;2023-07-29T02:07:55;99409.03;;;20.04;76.01
46223;BME280;31943;51.410;7.564;2023-07-29T02:10:20;99407.34;;;20.03;75.96
46223;BME280;31943;51.410;7.564;2023-07-29T02:12:46;99403.00;;;20.01;76.05
46223;BME280;31943;51.410;7.564;2023-07-29T02:15:14;99404.22;;;19.93;76.21
46223;BME280;31943;51.410;7.564;2023-07-29T02:17:42;99400.63;;;19.94;76.00
46223;BME280;31943;51.410;7.564;2023-07-29T02:20:09;99397.91;;;19.96;75.90
46223;BME280;31943;51.410;7.564;2023-07-29T02:22:34;99401.47;;;19.95;76.35
46223;BME280;31943;51.410;7.564;2023-07-29T02:25:00;99398.81;;;19.95;76.46
46223;BME280;31943;51.410;7.564;2023-07-29T02:27:26;99403.22;;;19.96;76.63
46223;BME280;31943;51.410;7.564;2023-07-29T02:29:51;99392.63;;;19.96;76.61
46223;BME280;31943;51.410;7.564;2023-07-29T02:32:19;99390.97;;;19.93;76.44
46223;BME280;31943;51.410;7.564;2023-07-29T02:34:44;99387.38;;;19.94;76.09
46223;BME280;31943;51.410;7.564;2023-07-29T02:37:10;99390.97;;;19.93;75.95
46223;BME280;31943;51.410;7.564;2023-07-29T02:39:37;99391.81;;;19.94;76.10
46223;BME280;31943;51.410;7.564;2023-07-29T02:42:03;99390.97;;;19.93;76.57
46223;BME280;31943;51.410;7.564;2023-07-29T02:44:29;99388.31;;;19.93;76.59
46223;BME280;31943;51.410;7.564;2023-07-29T02:46:55;99389.13;;;19.95;76.43
46223;BME280;31943;51.410;7.564;2023-07-29T02:49:22;99389.13;;;19.95;76.63
46223;BME280;31943;51.410;7.564;2023-07-29T02:51:48;99380.28;;;19.95;76.47
46223;BME280;31943;51.410;7.564;2023-07-29T02:54:14;99387.31;;;19.96;76.14
46223;BME280;31943;51.410;7.564;2023-07-29T02:56:39;99386.47;;;19.95;76.40
46223;BME280;31943;51.410;7.564;2023-07-29T02:59:05;99391.03;;;19.92;76.66
46223;BME280;31943;51.410;7.564;2023-07-29T03:01:31;99384.94;;;19.90;76.59
46223;BME280;31943;51.410;7.564;2023-07-29T03:03:57;99383.19;;;19.89;76.43
46223;BME280;31943;51.410;7.564;2023-07-29T03:06:24;99376.13;;;19.89;76.65
46223;BME280;31943;51.410;7.564;2023-07-29T03:08:49;99382.34;;;19.88;77.08
46223;BME280;31943;51.410;7.564;2023-07-29T03:11:16;99382.41;;;19.87;76.74
46223;BME280;31943;51.410;7.564;2023-07-29T03:13:42;99377.13;;;19.87;76.98
46223;BME280;31943;51.410;7.564;2023-07-29T03:16:10;99374.41;;;19.88;77.06
46223;BME280;31943;51.410;7.564;2023-07-29T03:18:36;99384.16;;;19.88;77.28
46223;BME280;31943;51.410;7.564;2023-07-29T03:21:02;99370.97;;;19.86;77.05
46223;BME280;31943;51.410;7.564;2023-07-29T03:23:30;99373.63;;;19.86;77.44
46223;BME280;31943;51.410;7.564;2023-07-29T03:25:56;99378.91;;;19.86;77.26
46223;BME280;31943;51.410;7.564;2023-07-29T03:28:22;99393.00;;;19.87;77.05
46223;BME280;31943;51.410;7.564;2023-07-29T03:30:48;99392.16;;;19.86;77.36
46223;BME280;31943;51.410;7.564;2023-07-29T03:33:14;99401.16;;;19.82;77.18
46223;BME280;31943;51.410;7.564;2023-07-29T03:35:40;99401.31;;;19.78;77.63
46223;BME280;31943;51.410;7.564;2023-07-29T03:38:05;99401.47;;;19.74;77.55
46223;BME280;31943;51.410;7.564;2023-07-29T03:40:34;99402.47;;;19.72;77.80
46223;BME280;31943;51.410;7.564;2023-07-29T03:42:59;99398.03;;;19.71;77.93
46223;BME280;31943;51.410;7.564;2023-07-29T03:45:25;99390.97;;;19.71;77.65
46223;BME280;31943;51.410;7.564;2023-07-29T03:47:50;99386.56;;;19.72;77.92
46223;BME280;31943;51.410;7.564;2023-07-29T03:50:16;99391.88;;;19.72;77.79
46223;BME280;31943;51.410;7.564;2023-07-29T03:52:42;99384.81;;;19.71;78.00
46223;BME280;31943;51.410;7.564;2023-07-29T03:55:08;99381.28;;;19.72;77.88
46223;BME280;31943;51.410;7.564;2023-07-29T03:57:35;99376.84;;;19.72;77.52
46223;BME280;31943;51.410;7.564;2023-07-29T04:00:01;99374.22;;;19.71;77.24
46223;BME280;31943;51.410;7.564;2023-07-29T04:02:27;99363.63;;;19.71;77.18
46223;BME280;31943;51.410;7.564;2023-07-29T04:04:52;99368.91;;;19.71;77.16
46223;BME280;31943;51.410;7.564;2023-07-29T04:07:18;99365.41;;;19.70;76.88
46223;BME280;31943;51.410;7.564;2023-07-29T04:09:44;99386.59;;;19.70;76.91
46223;BME280;31943;51.410;7.564;2023-07-29T04:12:10;99384.81;;;19.71;76.92
46223;BME280;31943;51.410;7.564;2023-07-29T04:14:37;99381.28;;;19.72;76.84
46223;BME280;31943;51.410;7.564;2023-07-29T04:17:04;99382.13;;;19.72;76.77
46223;BME280;31943;51.410;7.564;2023-07-29T04:19:30;99385.56;;;19.74;77.20
46223;BME280;31943;51.410;7.564;2023-07-29T04:21:55;99386.44;;;19.75;77.08
46223;BME280;31943;51.410;7.564;2023-07-29T04:24:21;99393.47;;;19.76;76.87
46223;BME280;31943;51.410;7.564;2023-07-29T04:26:47;99388.16;;;19.76;76.36
46223;BME280;31943;51.410;7.564;2023-07-29T04:29:12;99390.72;;;19.78;77.00
46223;BME280;31943;51.410;7.564;2023-07-29T04:31:40;99393.38;;;19.78;77.10
46223;BME280;31943;51.410;7.564;2023-07-29T04:34:06;99394.16;;;19.80;76.97
46223;BME280;31943;51.410;7.564;2023-07-29T04:36:35;99401.25;;;19.79;76.99
46223;BME280;31943;51.410;7.564;2023-07-29T04:39:01;99398.59;;;19.79;77.26
46223;BME280;31943;51.410;7.564;2023-07-29T04:41:26;99382.66;;;19.81;76.82
46223;BME280;31943;51.410;7.564;2023-07-29T04:43:52;99380.88;;;19.81;77.17
46223;BME280;31943;51.410;7.564;2023-07-29T04:46:18;99374.63;;;19.84;77.02
46223;BME280;31943;51.410;7.564;2023-07-29T04:48:48;99360.38;;;19.86;76.97
46223;BME280;31943;51.410;7.564;2023-07-29T04:51:14;99359.44;;;19.87;77.21
46223;BME280;31943;51.410;7.564;2023-07-29T04:53:41;99360.22;;;19.89;76.99
46223;BME280;31943;51.410;7.564;2023-07-29T04:56:08;99362.03;;;19.89;77.21
46223;BME280;31943;51.410;7.564;2023-07-29T04:58:34;99354.03;;;19.90;77.35
46223;BME280;31943;51.410;7.564;2023-07-29T05:00:59;99362.69;;;19.94;77.05
46223;BME280;31943;51.410;7.564;2023-07-29T05:03:26;99364.34;;;19.97;76.80
46223;BME280;31943;51.410;7.564;2023-07-29T05:05:53;99363.34;;;19.99;77.28
46223;BME280;31943;51.410;7.564;2023-07-29T05:08:19;99370.59;;;19.95;76.86
46223;BME280;31943;51.410;7.564;2023-07-29T05:10:48;99376.91;;;19.91;77.07
46223;BME280;31943;51.410;7.564;2023-07-29T05:13:14;99386.69;;;19.89;77.60
46223;BME280;31943;51.410;7.564;2023-07-29T05:15:40;99389.34;;;19.89;77.37
46223;BME280;31943;51.410;7.564;2023-07-29T05:18:05;99398.28;;;19.87;77.29
46223;BME280;31943;51.410;7.564;2023-07-29T05:20:32;99402.94;;;19.82;77.16
46223;BME280;31943;51.410;7.564;2023-07-29T05:23:03;99414.50;;;19.79;77.51
46223;BME280;31943;51.410;7.564;2023-07-29T05:25:29;99414.56;;;19.78;77.54
46223;BME280;31943;51.410;7.564;2023-07-29T05:27:56;99410.94;;;19.80;77.61
46223;BME280;31943;51.410;7.564;2023-07-29T05:30:21;99409.94;;;19.83;77.78
46223;BME280;31943;51.410;7.564;2023-07-29T05:32:47;99415.97;;;19.86;78.19
46223;BME280;31943;51.410;7.564;2023-07-29T05:35:13;99409.75;;;19.87;78.05
46223;BME280;31943;51.410;7.564;2023-07-29T05:37:39;99412.28;;;19.90;78.35
46223;BME280;31943;51.410;7.564;2023-07-29T05:40:07;99397.97;;;19.94;78.20
46223;BME280;31943;51.410;7.564;2023-07-29T05:42:34;99392.56;;;19.98;78.19
46223;BME280;31943;51.410;7.564;2023-07-29T05:45:01;99396.66;;;20.05;77.79
46223;BME280;31943;51.410;7.564;2023-07-29T05:47:28;99397.31;;;20.10;77.53
46223;BME280;31943;51.410;7.564;2023-07-29T05:49:54;99392.88;;;20.10;77.17
46223;BME280;31943;51.410;7.564;2023-07-29T05:52:21;99375.88;;;20.16;76.86
46223;BME280;31943;51.410;7.564;2023-07-29T05:54:46;99374.81;;;20.20;76.32
46223;BME280;31943;51.410;7.564;2023-07-29T05:57:15;99383.38;;;20.27;75.91
46223;BME280;31943;51.410;7.564;2023-07-29T05:59:41;99382.31;;;20.31;75.99
46223;BME280;31943;51.410;7.564;2023-07-29T06:02:06;99397.19;;;20.33;75.60
46223;BME280;31943;51.410;7.564;2023-07-29T06:04:32;99403.56;;;20.29;75.73
46223;BME280;31943;51.410;7.564;2023-07-29T06:06:58;99409.19;;;20.22;75.83
46223;BME280;31943;51.410;7.564;2023-07-29T06:09:24;99418.13;;;20.19;76.01
46223;BME280;31943;51.410;7.564;2023-07-29T06:11:50;99429.06;;;20.11;75.45
46223;BME280;31943;51.410;7.564;2023-07-29T06:14:19;99452.25;;;20.05;75.65
46223;BME280;31943;51.410;7.564;2023-07-29T06:16:45;99459.63;;;19.98;75.53
46223;BME280;31943;51.410;7.564;2023-07-29T06:19:11;99464.38;;;19.90;75.13
46223;BME280;31943;51.410;7.564;2023-07-29T06:21:38;99463.81;;;19.82;75.10
46223;BME280;31943;51.410;7.564;2023-07-29T06:24:04;99457.97;;;19.73;75.01
46223;BME280;31943;51.410;7.564;2023-07-29T06:26:30;99458.91;;;19.72;75.15
46223;BME280;31943;51.410;7.564;2023-07-29T06:28:55;99451.81;;;19.73;75.11
46223;BME280;31943;51.410;7.564;2023-07-29T06:31:22;99452.28;;;19.83;74.80
46223;BME280;31943;51.410;7.564;2023-07-29T06:33:48;99462.84;;;19.84;74.91
46223;BME280;31943;51.410;7.564;2023-07-29T06:36:14;99472.63;;;19.82;74.25
46223;BME280;31943;51.410;7.564;2023-07-29T06:38:39;99473.59;;;19.80;74.41
46223;BME280;31943;51.410;7.564;2023-07-29T06:41:05;99478.81;;;19.81;74.02
46223;BME280;31943;51.410;7.564;2023-07-29T06:43:31;99485.81;;;19.84;73.61
46223;BME280;31943;51.410;7.564;2023-07-29T06:45:56;99494.91;;;19.77;74.18
46223;BME280;31943;51.410;7.564;2023-07-29T06:48:24;99493.25;;;19.74;74.14
46223;BME280;31943;51.410;7.564;2023-07-29T06:50:50;99497.75;;;19.72;74.10
46223;BME280;31943;51.410;7.564;2023-07-29T06:53:16;99494.28;;;19.70;73.63
46223;BME280;31943;51.410;7.564;2023-07-29T06:55:44;99494.38;;;19.67;73.74
46223;BME280;31943;51.410;7.564;2023-07-29T06:58:12;99492.53;;;19.69;72.80
46223;BME280;31943;51.410;7.564;2023-07-29T07:00:38;99503.97;;;19.69;72.30
46223;BME280;31943;51.410;7.564;2023-07-29T07:03:04;99508.41;;;19.69;71.68
46223;BME280;31943;51.410;7.564;2023-07-29T07:05:32;99510.97;;;19.72;71.42
46223;BME280;31943;51.410;7.564;2023-07-29T07:07:58;99509.19;;;19.72;71.18
46223;BME280;31943;51.410;7.564;2023-07-29T07:10:25;99498.63;;;19.71;70.70
46223;BME280;31943;51.410;7.564;2023-07-29T07:12:51;99507.41;;;19.73;70.33
46223;BME280;31943;51.410;7.564;2023-07-29T07:15:16;99512.50;;;19.78;69.91
46223;BME280;31943;51.410;7.564;2023-07-29T07:17:43;99517.00;;;19.75;68.87
46223;BME280;31943;51.410;7.564;2023-07-29T07:20:09;99512.69;;;19.73;67.96
46223;BME280;31943;51.410;7.564;2023-07-29T07:22:36;99521.84;;;19.64;68.27
46223;BME280;31943;51.410;7.564;2023-07-29T07:25:01;99522.69;;;19.65;68.38
46223;BME280;31943;51.410;7.564;2023-07-29T07:27:27;99512.91;;;19.67;68.03
46223;BME280;31943;51.410;7.564;2023-07-29T07:29:53;99519.19;;;19.64;67.97
46223;BME280;31943;51.410;7.564;2023-07-29T07:32:18;99526.94;;;19.69;67.54
46223;BME280;31943;51.410;7.564;2023-07-29T07:34:44;99518.72;;;19.77;67.89
46223;BME280;31943;51.410;7.564;2023-07-29T07:37:09;99520.31;;;19.81;67.22
46223;BME280;31943;51.410;7.564;2023-07-29T07:39:37;99520.03;;;19.88;67.58
46223;BME280;31943;51.410;7.564;2023-07-29T07:42:03;99526.91;;;19.92;67.49
46223;BME280;31943;51.410;7.564;2023-07-29T07:44:30;99518.63;;;20.02;67.20
46223;BME280;31943;51.410;7.564;2023-07-29T07:46:55;99527.16;;;20.08;66.76
46223;BME280;31943;51.410;7.564;2023-07-29T07:49:21;99517.00;;;20.40;66.52
46223;BME280;31943;51.410;7.564;2023-07-29T07:51:47;99519.53;;;20.43;66.02
46223;BME280;31943;51.410;7.564;2023-07-29T07:54:12;99504.44;;;20.45;65.75
46223;BME280;31943;51.410;7.564;2023-07-29T07:56:41;99495.78;;;20.83;64.82
46223;BME280;31943;51.410;7.564;2023-07-29T07:59:07;99494.41;;;21.13;64.19
46223;BME280;31943;51.410;7.564;2023-07-29T08:01:34;99499.88;;;21.29;63.78
46223;BME280;31943;51.410;7.564;2023-07-29T08:04:01;99502.97;;;21.39;63.19
46223;BME280;31943;51.410;7.564;2023-07-29T08:06:27;99505.72;;;21.57;62.15
46223;BME280;31943;51.410;7.564;2023-07-29T08:08:52;99497.31;;;21.66;61.69
46223;BME280;31943;51.410;7.564;2023-07-29T08:11:19;99501.03;;;21.81;61.14
46223;BME280;31943;51.410;7.564;2023-07-29T08:13:46;99496.81;;;21.77;61.25
46223;BME280;31943;51.410;7.564;2023-07-29T08:16:12;99503.94;;;21.57;59.89
46223;BME280;31943;51.410;7.564;2023-07-29T08:18:39;99488.84;;;21.58;60.97
46223;BME280;31943;51.410;7.564;2023-07-29T08:21:06;99495.31;;;21.52;61.41
46223;BME280;31943;51.410;7.564;2023-07-29T08:23:35;99505.25;;;21.28;61.09
46223;BME280;31943;51.410;7.564;2023-07-29T08:26:02;99510.91;;;21.01;61.61
46223;BME280;31943;51.410;7.564;2023-07-29T08:28:31;99511.63;;;20.84;61.73
46223;BME280;31943;51.410;7.564;2023-07-29T08:30:59;99515.00;;;20.67;61.18
46223;BME280;31943;51.410;7.564;2023-07-29T08:33:25;99516.25;;;20.59;60.91
46223;BME280;31943;51.410;7.564;2023-07-29T08:35:51;99515.16;;;20.64;61.98
46223;BME280;31943;51.410;7.564;2023-07-29T08:38:17;99514.34;;;21.03;60.82
46223;BME280;31943;51.410;7.564;2023-07-29T08:40:52;99514.50;;;21.19;60.54
46223;BME280;31943;51.410;7.564;2023-07-29T08:43:20;99517.59;;;21.29;60.18
46223;BME280;31943;51.410;7.564;2023-07-29T08:45:51;99521.53;;;21.20;60.57
46223;BME280;31943;51.410;7.564;2023-07-29T08:48:23;99517.00;;;21.22;59.46
46223;BME280;31943;51.410;7.564;2023-07-29T08:50:53;99520.88;;;21.15;59.27
46223;BME280;31943;51.410;7.564;2023-07-29T08:53:21;99524.78;;;21.06;59.63
46223;BME280;31943;51.410;7.564;2023-07-29T08:55:48;99524.84;;;21.05;59.58
46223;BME280;31943;51.410;7.564;2023-07-29T08:58:14;99512.19;;;21.11;59.81
46223;BME280;31943;51.410;7.564;2023-07-29T09:00:41;99518.69;;;21.44;59.04
46223;BME280;31943;51.410;7.564;2023-07-29T09:03:06;99518.47;;;21.67;58.87
46223;BME280;31943;51.410;7.564;2023-07-29T09:05:35;99510.22;;;21.92;57.61
46223;BME280;31943;51.410;7.564;2023-07-29T09:08:02;99511.16;;;22.09;57.54
46223;BME280;31943;51.410;7.564;2023-07-29T09:10:27;99512.69;;;21.78;57.75
46223;BME280;31943;51.410;7.564;2023-07-29T09:12:53;99514.06;;;21.85;57.74
46223;BME280;31943;51.410;7.564;2023-07-29T09:15:28;99511.28;;;21.88;57.39
46223;BME280;31943;51.410;7.564;2023-07-29T09:17:55;99512.25;;;22.05;57.15
46223;BME280;31943;51.410;7.564;2023-07-29T09:20:24;99509.91;;;21.99;57.08
46223;BME280;31943;51.410;7.564;2023-07-29T09:22:51;99502.25;;;22.29;56.84
46223;BME280;31943;51.410;7.564;2023-07-29T09:25:22;99501.56;;;22.60;56.38
46223;BME280;31943;51.410;7.564;2023-07-29T09:27:49;99507.00;;;22.75;56.06
46223;BME280;31943;51.410;7.564;2023-07-29T09:30:15;99505.19;;;22.93;55.87
46223;BME280;31943;51.410;7.564;2023-07-29T09:32:41;99496.78;;;23.00;56.22
46223;BME280;31943;51.410;7.564;2023-07-29T09:35:10;99499.00;;;23.09;54.85
46223;BME280;31943;51.410;7.564;2023-07-29T09:37:36;99506.56;;;23.17;53.87
46223;BME280;31943;51.410;7.564;2023-07-29T09:40:06;99502.97;;;23.18;54.37
46223;BME280;31943;51.410;7.564;2023-07-29T09:42:32;99507.44;;;23.34;54.51
46223;BME280;31943;51.410;7.564;2023-07-29T09:47:46;99497.91;;;22.96;55.34
46223;BME280;31943;51.410;7.564;2023-07-29T09:50:12;99507.28;;;23.21;54.91
46223;BME280;31943;51.410;7.564;2023-07-29T09:52:37;99514.09;;;23.42;53.72
46223;BME280;31943;51.410;7.564;2023-07-29T09:55:06;99511.78;;;23.19;54.20
46223;BME280;31943;51.410;7.564;2023-07-29T09:57:32;99519.09;;;22.98;55.29
46223;BME280;31943;51.410;7.564;2023-07-29T09:59:58;99519.59;;;22.88;56.40
46223;BME280;31943;51.410;7.564;2023-07-29T10:02:24;99512.72;;;22.84;56.23
46223;BME280;31943;51.410;7.564;2023-07-29T10:04:49;99518.34;;;22.78;55.63
46223;BME280;31943;51.410;7.564;2023-07-29T10:07:17;99509.91;;;22.87;55.93
46223;BME280;31943;51.410;7.564;2023-07-29T10:09:45;99516.19;;;23.20;55.20
46223;BME280;31943;51.410;7.564;2023-07-29T10:12:13;99516.25;;;23.18;54.83
46223;BME280;31943;51.410;7.564;2023-07-29T10:14:39;99522.63;;;22.98;54.55
46223;BME280;31943;51.410;7.564;2023-07-29T10:17:05;99521.72;;;22.82;54.67
46223;BME280;31943;51.410;7.564;2023-07-29T10:19:31;99522.13;;;22.74;55.95
46223;BME280;31943;51.410;7.564;2023-07-29T10:21:59;99516.69;;;22.76;56.28
46223;BME280;31943;51.410;7.564;2023-07-29T10:24:29;99515.50;;;22.81;56.27
46223;BME280;31943;51.410;7.564;2023-07-29T10:26:57;99512.31;;;22.92;55.36
46223;BME280;31943;51.410;7.564;2023-07-29T10:29:30;99518.03;;;23.35;54.73
46223;BME280;31943;51.410;7.564;2023-07-29T10:31:58;99521.22;;;23.58;54.41
46223;BME280;31943;51.410;7.564;2023-07-29T10:34:27;99516.84;;;23.57;54.20
46223;BME280;31943;51.410;7.564;2023-07-29T10:36:53;99511.78;;;23.68;54.03
46223;BME280;31943;51.410;7.564;2023-07-29T10:39:20;99510.81;;;23.53;53.20
46223;BME280;31943;51.410;7.564;2023-07-29T10:41:56;99519.84;;;23.51;54.03
46223;BME280;31943;51.410;7.564;2023-07-29T10:44:50;99513.78;;;23.80;53.78
46223;BME280;31943;51.410;7.564;2023-07-29T10:47:17;99514.94;;;23.75;52.95
46223;BME280;31943;51.410;7.564;2023-07-29T10:49:44;99518.75;;;23.71;53.88
46223;BME280;31943;51.410;7.564;2023-07-29T10:52:13;99516.56;;;23.61;53.35
46223;BME280;31943;51.410;7.564;2023-07-29T10:54:42;99523.03;;;23.57;53.89
46223;BME280;31943;51.410;7.564;2023-07-29T10:57:13;99506.28;;;23.71;53.60
46223;BME280;31943;51.410;7.564;2023-07-29T10:59:39;99500.53;;;23.95;53.32
46223;BME280;31943;51.410;7.564;2023-07-29T11:02:17;99498.00;;;24.23;52.79
46223;BME280;31943;51.410;7.564;2023-07-29T11:04:47;99497.75;;;24.58;52.03
46223;BME280;31943;51.410;7.564;2023-07-29T11:07:21;99501.13;;;24.76;51.38
46223;BME280;31943;51.410;7.564;2023-07-29T11:09:53;99512.00;;;24.88;51.03
46223;BME280;31943;51.410;7.564;2023-07-29T11:12:41;99501.22;;;24.89;50.22
46223;BME280;31943;51.410;7.564;2023-07-29T11:15:15;99507.88;;;24.82;50.65
46223;BME280;31943;51.410;7.564;2023-07-29T11:17:44;99511.31;;;24.98;50.72
46223;BME280;31943;51.410;7.564;2023-07-29T11:20:11;99507.81;;;24.98;49.40
46223;BME280;31943;51.410;7.564;2023-07-29T11:22:37;99507.50;;;24.74;50.66
46223;BME280;31943;51.410;7.564;2023-07-29T11:25:03;99498.16;;;24.66;51.05
46223;BME280;31943;51.410;7.564;2023-07-29T11:27:29;99484.34;;;24.44;50.93
46223;BME280;31943;51.410;7.564;2023-07-29T11:29:57;99479.44;;;24.36;50.50
46223;BME280;31943;51.410;7.564;2023-07-29T11:32:22;99482.69;;;24.57;51.58
46223;BME280;31943;51.410;7.564;2023-07-29T11:34:51;99477.75;;;24.65;49.92
46223;BME280;31943;51.410;7.564;2023-07-29T11:37:22;99490.78;;;24.56;49.92
46223;BME280;31943;51.410;7.564;2023-07-29T11:39:48;99487.28;;;24.70;49.85
46223;BME280;31943;51.410;7.564;2023-07-29T11:42:14;99477.06;;;24.62;50.01
46223;BME280;31943;51.410;7.564;2023-07-29T11:44:40;99476.34;;;24.89;49.57
46223;BME280;31943;51.410;7.564;2023-07-29T11:47:06;99482.53;;;25.18;49.72
46223;BME280;31943;51.410;7.564;2023-07-29T11:49:33;99479.19;;;25.14;49.02
46223;BME280;31943;51.410;7.564;2023-07-29T11:52:00;99485.22;;;25.32;48.44
46223;BME280;31943;51.410;7.564;2023-07-29T11:54:28;99482.94;;;25.12;49.21
46223;BME280;31943;51.410;7.564;2023-07-29T11:56:56;99486.72;;;24.93;50.14
46223;BME280;31943;51.410;7.564;2023-07-29T11:59:21;99483.50;;;24.74;50.22
46223;BME280;31943;51.410;7.564;2023-07-29T12:01:48;99489.47;;;24.63;50.83
46223;BME280;31943;51.410;7.564;2023-07-29T12:04:14;99495.59;;;24.49;50.60
46223;BME280;31943;51.410;7.564;2023-07-29T12:06:45;99501.22;;;24.44;50.97
46223;BME280;31943;51.410;7.564;2023-07-29T12:09:13;99497.09;;;24.39;51.20
46223;BME280;31943;51.410;7.564;2023-07-29T12:11:41;99490.22;;;24.35;49.99
46223;BME280;31943;51.410;7.564;2023-07-29T12:14:09;99477.22;;;24.28;49.99
46223;BME280;31943;51.410;7.564;2023-07-29T12:16:41;99483.97;;;24.20;50.85
46223;BME280;31943;51.410;7.564;2023-07-29T12:19:08;99477.16;;;24.00;50.60
46223;BME280;31943;51.410;7.564;2023-07-29T12:21:33;99485.22;;;23.98;52.01
46223;BME280;31943;51.410;7.564;2023-07-29T12:23:59;99478.84;;;24.01;51.97
46223;BME280;31943;51.410;7.564;2023-07-29T12:26:29;99477.56;;;24.08;51.80
46223;BME280;31943;51.410;7.564;2023-07-29T12:28:54;99483.25;;;24.32;51.41
46223;BME280;31943;51.410;7.564;2023-07-29T12:31:20;99477.25;;;24.59;50.53
46223;BME280;31943;51.410;7.564;2023-07-29T12:33:47;99492.59;;;24.55;50.75
46223;BME280;31943;51.410;7.564;2023-07-29T12:36:13;99489.09;;;24.39;51.88
46223;BME280;31943;51.410;7.564;2023-07-29T12:38:42;99489.63;;;24.30;51.54
46223;BME280;31943;51.410;7.564;2023-07-29T12:41:08;99481.03;;;24.24;51.85
46223;BME280;31943;51.410;7.564;2023-07-29T12:43:36;99474.91;;;24.83;51.06
46223;BME280;31943;51.410;7.564;2023-07-29T12:46:01;99484.00;;;25.23;49.36
46223;BME280;31943;51.410;7.564;2023-07-29T12:48:28;99477.50;;;25.28;48.59
46223;BME280;31943;51.410;7.564;2023-07-29T12:50:54;99483.19;;;24.93;49.68
46223;BME280;31943;51.410;7.564;2023-07-29T12:53:19;99466.19;;;24.51;50.95
46223;BME280;31943;51.410;7.564;2023-07-29T12:55:45;99478.47;;;24.23;51.78
46223;BME280;31943;51.410;7.564;2023-07-29T12:58:11;99474.88;;;24.38;51.38
46223;BME280;31943;51.410;7.564;2023-07-29T13:00:39;99484.06;;;24.93;51.14
46223;BME280;31943;51.410;7.564;2023-07-29T13:03:05;99485.88;;;25.21;50.89